sensor_id;sensor_type;location;lat;lon;timestamp;P1;durP1;ratioP1;P2;durP2;ratioP2
49764;SDS011;35657;51.204;-4.130;2023-05-29T00:00:15;10.52;;;4.07;;
49764;SDS011;35657;51.204;-4.130;2023-05-29T00:02:45;10.00;;;4.28;;
49764;SDS011;35657;51.204;-4.130;2023-05-29T00:05:12;12.63;;;5.00;;
49764;SDS011;35657;51.204;-4.130;2023-05-29T00:07:38;12.02;;;4.70;;
49764;SDS011;35657;51.204;-4.130;2023-05-29T00:10:05;10.73;;;3.67;;
49764;SDS011;35657;51.204;-4.130;2023-05-29T00:12:32;9.85;;;4.20;;
49764;SDS011;35657;51.204;-4.130;2023-05-29T00:14:57;11.60;;;3.80;;
49764;SDS011;35657;51.204;-4.130;2023-05-29T00:17:23;14.20;;;4.53;;
49764;SDS011;35657;51.204;-4.130;2023-05-29T00:19:49;10.90;;;4.35;;
49764;SDS011;35657;51.204;-4.130;2023-05-29T00:22:15;10.70;;;4.65;;
49764;SDS011;35657;51.204;-4.130;2023-05-29T00:24:41;9.13;;;4.00;;
49764;SDS011;35657;51.204;-4.130;2023-05-29T00:27:07;9.68;;;4.78;;
49764;SDS011;35657;51.204;-4.130;2023-05-29T00:29:34;13.80;;;5.25;;
49764;SDS011;35657;51.204;-4.130;2023-05-29T00:32:01;12.98;;;5.70;;
49764;SDS011;35657;51.204;-4.130;2023-05-29T00:34:27;11.10;;;4.68;;
49764;SDS011;35657;51.204;-4.130;2023-05-29T00:36:52;9.20;;;4.85;;
49764;SDS011;35657;51.204;-4.130;2023-05-29T00:39:20;13.45;;;5.07;;
49764;SDS011;35657;51.204;-4.130;2023-05-29T00:41:46;12.30;;;5.43;;
49764;SDS011;35657;51.204;-4.130;2023-05-29T00:44:16;12.75;;;5.15;;
49764;SDS011;35657;51.204;-4.130;2023-05-29T00:46:46;13.57;;;4.88;;
49764;SDS011;35657;51.204;-4.130;2023-05-29T00:49:17;11.57;;;5.15;;
49764;SDS011;35657;51.204;-4.130;2023-05-29T00:51:44;13.43;;;5.18;;
49764;SDS011;35657;51.204;-4.130;2023-05-29T00:54:14;17.05;;;4.97;;
49764;SDS011;35657;51.204;-4.130;2023-05-29T00:56:46;17.55;;;5.93;;
49764;SDS011;35657;51.204;-4.130;2023-05-29T00:59:13;10.02;;;4.80;;
49764;SDS011;35657;51.204;-4.130;2023-05-29T01:01:39;13.35;;;4.43;;
49764;SDS011;35657;51.204;-4.130;2023-05-29T01:04:06;13.35;;;6.03;;
49764;SDS011;35657;51.204;-4.130;2023-05-29T01:06:35;12.02;;;6.20;;
49764;SDS011;35657;51.204;-4.130;2023-05-29T01:09:01;14.27;;;5.93;;
49764;SDS011;35657;51.204;-4.130;2023-05-29T01:11:41;13.90;;;5.63;;
49764;SDS011;35657;51.204;-4.130;2023-05-29T01:14:23;19.85;;;6.28;;
49764;SDS011;35657;51.204;-4.130;2023-05-29T01:17:11;13.32;;;6.95;;
49764;SDS011;35657;51.204;-4.130;2023-05-29T01:25:35;15.93;;;6.20;;
49764;SDS011;35657;51.204;-4.130;2023-05-29T01:28:19;15.68;;;6.00;;
49764;SDS011;35657;51.204;-4.130;2023-05-29T01:30:49;15.93;;;6.20;;
49764;SDS011;35657;51.204;-4.130;2023-05-29T01:33:16;15.60;;;6.38;;
49764;SDS011;35657;51.204;-4.130;2023-05-29T01:35:42;11.82;;;6.68;;
49764;SDS011;35657;51.204;-4.130;2023-05-29T01:38:08;19.15;;;6.03;;
49764;SDS011;35657;51.204;-4.130;2023-05-29T01:40:34;14.95;;;5.85;;
49764;SDS011;35657;51.204;-4.130;2023-05-29T01:43:00;7.93;;;4.85;;
49764;SDS011;35657;51.204;-4.130;2023-05-29T01:45:26;15.32;;;6.85;;
49764;SDS011;35657;51.204;-4.130;2023-05-29T01:47:53;19.98;;;6.40;;
49764;SDS011;35657;51.204;-4.130;2023-05-29T01:50:19;17.52;;;5.82;;
49764;SDS011;35657;51.204;-4.130;2023-05-29T01:52:48;13.52;;;6.70;;
49764;SDS011;35657;51.204;-4.130;2023-05-29T01:55:14;19.42;;;6.93;;
49764;SDS011;35657;51.204;-4.130;2023-05-29T01:57:40;18.40;;;7.28;;
49764;SDS011;35657;51.204;-4.130;2023-05-29T02:00:06;17.50;;;6.63;;
49764;SDS011;35657;51.204;-4.130;2023-05-29T02:02:40;12.95;;;6.07;;
49764;SDS011;35657;51.204;-4.130;2023-05-29T02:05:07;14.93;;;6.97;;
49764;SDS011;35657;51.204;-4.130;2023-05-29T02:07:36;12.00;;;6.53;;
49764;SDS011;35657;51.204;-4.130;2023-05-29T02:10:06;17.60;;;7.22;;
49764;SDS011;35657;51.204;-4.130;2023-05-29T02:12:32;12.82;;;6.22;;
49764;SDS011;35657;51.204;-4.130;2023-05-29T02:14:58;14.18;;;7.00;;
49764;SDS011;35657;51.204;-4.130;2023-05-29T02:17:23;19.55;;;5.95;;
49764;SDS011;35657;51.204;-4.130;2023-05-29T02:19:50;14.00;;;5.88;;
49764;SDS011;35657;51.204;-4.130;2023-05-29T02:22:17;17.10;;;5.97;;
49764;SDS011;35657;51.204;-4.130;2023-05-29T02:24:43;12.00;;;6.07;;
49764;SDS011;35657;51.204;-4.130;2023-05-29T02:27:09;15.15;;;5.65;;
49764;SDS011;35657;51.204;-4.130;2023-05-29T02:29:34;13.38;;;5.97;;
49764;SDS011;35657;51.204;-4.130;2023-05-29T02:32:00;14.35;;;4.72;;
49764;SDS011;35657;51.204;-4.130;2023-05-29T02:34:26;16.13;;;5.97;;
49764;SDS011;35657;51.204;-4.130;2023-05-29T02:36:52;16.15;;;5.88;;
49764;SDS011;35657;51.204;-4.130;2023-05-29T02:39:18;11.05;;;5.22;;
49764;SDS011;35657;51.204;-4.130;2023-05-29T02:41:44;13.07;;;5.88;;
49764;SDS011;35657;51.204;-4.130;2023-05-29T02:44:10;19.20;;;5.70;;
49764;SDS011;35657;51.204;-4.130;2023-05-29T02:46:36;14.45;;;5.20;;
49764;SDS011;35657;51.204;-4.130;2023-05-29T02:49:01;18.15;;;5.68;;
49764;SDS011;35657;51.204;-4.130;2023-05-29T02:51:27;10.98;;;4.72;;
49764;SDS011;35657;51.204;-4.130;2023-05-29T02:53:53;10.43;;;5.43;;
49764;SDS011;35657;51.204;-4.130;2023-05-29T02:56:19;14.98;;;5.43;;
49764;SDS011;35657;51.204;-4.130;2023-05-29T02:58:49;13.43;;;5.13;;
49764;SDS011;35657;51.204;-4.130;2023-05-29T03:01:18;16.83;;;6.20;;
49764;SDS011;35657;51.204;-4.130;2023-05-29T03:03:44;14.30;;;5.45;;
49764;SDS011;35657;51.204;-4.130;2023-05-29T03:06:09;18.98;;;5.15;;
49764;SDS011;35657;51.204;-4.130;2023-05-29T03:08:37;13.23;;;5.93;;
49764;SDS011;35657;51.204;-4.130;2023-05-29T03:11:09;17.10;;;5.95;;
49764;SDS011;35657;51.204;-4.130;2023-05-29T03:13:36;15.50;;;5.30;;
49764;SDS011;35657;51.204;-4.130;2023-05-29T03:16:05;16.40;;;5.07;;
49764;SDS011;35657;51.204;-4.130;2023-05-29T03:18:33;13.98;;;4.88;;
49764;SDS011;35657;51.204;-4.130;2023-05-29T03:21:00;13.32;;;3.60;;
49764;SDS011;35657;51.204;-4.130;2023-05-29T03:23:26;17.98;;;3.83;;
49764;SDS011;35657;51.204;-4.130;2023-05-29T03:25:52;15.52;;;5.70;;
49764;SDS011;35657;51.204;-4.130;2023-05-29T03:28:18;14.48;;;4.90;;
49764;SDS011;35657;51.204;-4.130;2023-05-29T03:30:43;15.40;;;4.80;;
49764;SDS011;35657;51.204;-4.130;2023-05-29T03:33:09;18.13;;;5.38;;
49764;SDS011;35657;51.204;-4.130;2023-05-29T03:35:35;10.77;;;4.05;;
49764;SDS011;35657;51.204;-4.130;2023-05-29T03:38:01;15.75;;;4.25;;
49764;SDS011;35657;51.204;-4.130;2023-05-29T03:40:26;13.30;;;4.28;;
49764;SDS011;35657;51.204;-4.130;2023-05-29T03:42:52;14.35;;;4.43;;
49764;SDS011;35657;51.204;-4.130;2023-05-29T03:45:18;11.82;;;3.95;;
49764;SDS011;35657;51.204;-4.130;2023-05-29T03:47:43;11.40;;;3.63;;
49764;SDS011;35657;51.204;-4.130;2023-05-29T03:50:09;18.25;;;4.10;;
49764;SDS011;35657;51.204;-4.130;2023-05-29T03:52:36;8.30;;;3.15;;
49764;SDS011;35657;51.204;-4.130;2023-05-29T03:55:02;12.00;;;3.13;;
49764;SDS011;35657;51.204;-4.130;2023-05-29T03:57:28;9.27;;;2.33;;
49764;SDS011;35657;51.204;-4.130;2023-05-29T03:59:53;13.77;;;3.42;;
49764;SDS011;35657;51.204;-4.130;2023-05-29T04:02:19;11.52;;;2.75;;
49764;SDS011;35657;51.204;-4.130;2023-05-29T04:04:45;18.98;;;3.60;;
49764;SDS011;35657;51.204;-4.130;2023-05-29T04:07:11;9.63;;;2.25;;
49764;SDS011;35657;51.204;-4.130;2023-05-29T04:09:36;7.75;;;2.92;;
49764;SDS011;35657;51.204;-4.130;2023-05-29T04:12:02;5.05;;;2.10;;
49764;SDS011;35657;51.204;-4.130;2023-05-29T04:14:28;8.90;;;3.20;;
49764;SDS011;35657;51.204;-4.130;2023-05-29T04:16:54;9.63;;;3.28;;
49764;SDS011;35657;51.204;-4.130;2023-05-29T04:19:20;10.57;;;3.35;;
49764;SDS011;35657;51.204;-4.130;2023-05-29T04:21:46;8.50;;;3.00;;
49764;SDS011;35657;51.204;-4.130;2023-05-29T04:24:13;9.80;;;2.80;;
49764;SDS011;35657;51.204;-4.130;2023-05-29T04:26:40;12.05;;;2.60;;
49764;SDS011;35657;51.204;-4.130;2023-05-29T04:29:06;7.88;;;2.20;;
49764;SDS011;35657;51.204;-4.130;2023-05-29T04:31:33;8.82;;;2.88;;
49764;SDS011;35657;51.204;-4.130;2023-05-29T04:33:58;9.15;;;3.00;;
49764;SDS011;35657;51.204;-4.130;2023-05-29T04:36:25;8.27;;;2.50;;
49764;SDS011;35657;51.204;-4.130;2023-05-29T04:38:53;12.48;;;2.50;;
49764;SDS011;35657;51.204;-4.130;2023-05-29T04:41:19;10.80;;;2.90;;
49764;SDS011;35657;51.204;-4.130;2023-05-29T04:43:48;7.95;;;2.60;;
49764;SDS011;35657;51.204;-4.130;2023-05-29T04:46:16;9.93;;;2.55;;
49764;SDS011;35657;51.204;-4.130;2023-05-29T04:48:42;6.72;;;2.95;;
49764;SDS011;35657;51.204;-4.130;2023-05-29T04:51:09;11.48;;;3.08;;
49764;SDS011;35657;51.204;-4.130;2023-05-29T04:53:38;8.10;;;2.75;;
49764;SDS011;35657;51.204;-4.130;2023-05-29T04:56:06;10.70;;;2.95;;
49764;SDS011;35657;51.204;-4.130;2023-05-29T04:58:32;13.23;;;3.05;;
49764;SDS011;35657;51.204;-4.130;2023-05-29T05:00:57;9.15;;;2.08;;
49764;SDS011;35657;51.204;-4.130;2023-05-29T05:03:24;7.03;;;2.45;;
49764;SDS011;35657;51.204;-4.130;2023-05-29T05:05:50;11.35;;;2.92;;
49764;SDS011;35657;51.204;-4.130;2023-05-29T05:08:17;20.00;;;3.20;;
49764;SDS011;35657;51.204;-4.130;2023-05-29T05:10:43;9.00;;;2.97;;
49764;SDS011;35657;51.204;-4.130;2023-05-29T05:13:08;12.30;;;3.10;;
49764;SDS011;35657;51.204;-4.130;2023-05-29T05:15:36;12.00;;;3.05;;
49764;SDS011;35657;51.204;-4.130;2023-05-29T05:18:01;9.68;;;2.80;;
49764;SDS011;35657;51.204;-4.130;2023-05-29T05:20:27;8.75;;;3.25;;
49764;SDS011;35657;51.204;-4.130;2023-05-29T05:22:53;10.85;;;2.60;;
49764;SDS011;35657;51.204;-4.130;2023-05-29T05:25:21;16.75;;;3.75;;
49764;SDS011;35657;51.204;-4.130;2023-05-29T05:27:46;9.80;;;3.03;;
49764;SDS011;35657;51.204;-4.130;2023-05-29T05:30:12;9.32;;;2.85;;
49764;SDS011;35657;51.204;-4.130;2023-05-29T05:32:38;10.55;;;3.22;;
49764;SDS011;35657;51.204;-4.130;2023-05-29T05:35:04;10.45;;;2.80;;
49764;SDS011;35657;51.204;-4.130;2023-05-29T05:37:30;9.07;;;2.95;;
49764;SDS011;35657;51.204;-4.130;2023-05-29T05:39:55;11.15;;;3.83;;
49764;SDS011;35657;51.204;-4.130;2023-05-29T05:42:23;10.18;;;2.60;;
49764;SDS011;35657;51.204;-4.130;2023-05-29T05:44:49;13.50;;;3.38;;
49764;SDS011;35657;51.204;-4.130;2023-05-29T05:47:14;12.57;;;3.28;;
49764;SDS011;35657;51.204;-4.130;2023-05-29T05:49:40;12.07;;;3.40;;
49764;SDS011;35657;51.204;-4.130;2023-05-29T05:52:06;9.90;;;3.03;;
49764;SDS011;35657;51.204;-4.130;2023-05-29T05:54:32;9.77;;;2.08;;
49764;SDS011;35657;51.204;-4.130;2023-05-29T05:56:57;14.68;;;2.97;;
49764;SDS011;35657;51.204;-4.130;2023-05-29T05:59:23;12.23;;;3.28;;
49764;SDS011;35657;51.204;-4.130;2023-05-29T06:01:49;14.00;;;4.28;;
49764;SDS011;35657;51.204;-4.130;2023-05-29T06:04:14;12.18;;;3.60;;
49764;SDS011;35657;51.204;-4.130;2023-05-29T06:06:40;10.80;;;3.75;;
49764;SDS011;35657;51.204;-4.130;2023-05-29T06:09:06;13.48;;;3.58;;
49764;SDS011;35657;51.204;-4.130;2023-05-29T06:11:32;9.43;;;3.40;;
49764;SDS011;35657;51.204;-4.130;2023-05-29T06:13:58;9.60;;;3.05;;
49764;SDS011;35657;51.204;-4.130;2023-05-29T06:16:24;10.45;;;4.13;;
49764;SDS011;35657;51.204;-4.130;2023-05-29T06:18:50;13.85;;;5.15;;
49764;SDS011;35657;51.204;-4.130;2023-05-29T06:21:16;7.28;;;3.42;;
49764;SDS011;35657;51.204;-4.130;2023-05-29T06:23:41;7.10;;;2.92;;
49764;SDS011;35657;51.204;-4.130;2023-05-29T06:26:07;12.90;;;4.93;;
49764;SDS011;35657;51.204;-4.130;2023-05-29T06:28:33;14.23;;;4.63;;
49764;SDS011;35657;51.204;-4.130;2023-05-29T06:30:59;11.52;;;3.58;;
49764;SDS011;35657;51.204;-4.130;2023-05-29T06:33:24;11.45;;;3.67;;
49764;SDS011;35657;51.204;-4.130;2023-05-29T06:35:50;12.57;;;4.35;;
49764;SDS011;35657;51.204;-4.130;2023-05-29T06:38:16;10.23;;;2.92;;
49764;SDS011;35657;51.204;-4.130;2023-05-29T06:40:42;8.18;;;3.03;;
49764;SDS011;35657;51.204;-4.130;2023-05-29T06:43:08;11.07;;;3.88;;
49764;SDS011;35657;51.204;-4.130;2023-05-29T06:45:37;15.77;;;4.60;;
49764;SDS011;35657;51.204;-4.130;2023-05-29T06:48:03;9.75;;;3.90;;
49764;SDS011;35657;51.204;-4.130;2023-05-29T06:50:29;15.82;;;4.50;;
49764;SDS011;35657;51.204;-4.130;2023-05-29T06:52:55;15.43;;;3.20;;
49764;SDS011;35657;51.204;-4.130;2023-05-29T06:55:21;13.15;;;5.07;;
49764;SDS011;35657;51.204;-4.130;2023-05-29T06:57:46;14.73;;;5.85;;
49764;SDS011;35657;51.204;-4.130;2023-05-29T07:00:12;12.82;;;4.00;;
49764;SDS011;35657;51.204;-4.130;2023-05-29T07:02:39;10.13;;;3.55;;
49764;SDS011;35657;51.204;-4.130;2023-05-29T07:05:05;14.07;;;3.97;;
49764;SDS011;35657;51.204;-4.130;2023-05-29T07:07:31;15.45;;;3.75;;
49764;SDS011;35657;51.204;-4.130;2023-05-29T07:09:56;12.73;;;4.20;;
49764;SDS011;35657;51.204;-4.130;2023-05-29T07:12:22;14.30;;;4.20;;
49764;SDS011;35657;51.204;-4.130;2023-05-29T07:14:48;9.82;;;4.32;;
49764;SDS011;35657;51.204;-4.130;2023-05-29T07:17:14;14.85;;;3.70;;
49764;SDS011;35657;51.204;-4.130;2023-05-29T07:19:40;9.35;;;3.03;;
49764;SDS011;35657;51.204;-4.130;2023-05-29T07:22:06;15.65;;;2.75;;
49764;SDS011;35657;51.204;-4.130;2023-05-29T07:24:32;11.88;;;4.53;;
49764;SDS011;35657;51.204;-4.130;2023-05-29T07:26:58;14.55;;;4.05;;
49764;SDS011;35657;51.204;-4.130;2023-05-29T07:29:23;15.13;;;5.55;;
49764;SDS011;35657;51.204;-4.130;2023-05-29T07:31:50;12.20;;;3.17;;
49764;SDS011;35657;51.204;-4.130;2023-05-29T07:34:16;9.50;;;3.88;;
49764;SDS011;35657;51.204;-4.130;2023-05-29T07:39:40;7.70;;;2.85;;
49764;SDS011;35657;51.204;-4.130;2023-05-29T07:42:07;15.45;;;4.63;;
49764;SDS011;35657;51.204;-4.130;2023-05-29T07:44:33;15.32;;;3.65;;
49764;SDS011;35657;51.204;-4.130;2023-05-29T07:46:58;11.45;;;3.55;;
49764;SDS011;35657;51.204;-4.130;2023-05-29T07:49:24;14.65;;;3.95;;
49764;SDS011;35657;51.204;-4.130;2023-05-29T07:51:50;10.05;;;3.42;;
49764;SDS011;35657;51.204;-4.130;2023-05-29T07:54:16;11.85;;;3.15;;
49764;SDS011;35657;51.204;-4.130;2023-05-29T07:56:46;14.70;;;4.47;;
49764;SDS011;35657;51.204;-4.130;2023-05-29T07:59:12;11.45;;;3.45;;
49764;SDS011;35657;51.204;-4.130;2023-05-29T08:01:38;12.15;;;4.43;;
49764;SDS011;35657;51.204;-4.130;2023-05-29T08:04:04;10.18;;;4.22;;
49764;SDS011;35657;51.204;-4.130;2023-05-29T08:06:30;12.88;;;3.80;;
49764;SDS011;35657;51.204;-4.130;2023-05-29T08:08:59;17.30;;;4.38;;
49764;SDS011;35657;51.204;-4.130;2023-05-29T08:11:25;8.15;;;3.63;;
49764;SDS011;35657;51.204;-4.130;2023-05-29T08:13:51;12.20;;;3.03;;
49764;SDS011;35657;51.204;-4.130;2023-05-29T08:16:16;11.98;;;4.03;;
49764;SDS011;35657;51.204;-4.130;2023-05-29T08:18:42;10.30;;;3.67;;
49764;SDS011;35657;51.204;-4.130;2023-05-29T08:21:08;5.20;;;2.45;;
49764;SDS011;35657;51.204;-4.130;2023-05-29T08:23:34;10.15;;;3.75;;
49764;SDS011;35657;51.204;-4.130;2023-05-29T08:26:00;11.73;;;2.80;;
49764;SDS011;35657;51.204;-4.130;2023-05-29T08:28:27;8.45;;;2.92;;
49764;SDS011;35657;51.204;-4.130;2023-05-29T08:30:53;16.95;;;4.10;;
49764;SDS011;35657;51.204;-4.130;2023-05-29T08:33:19;7.57;;;3.22;;
49764;SDS011;35657;51.204;-4.130;2023-05-29T08:35:45;9.98;;;3.20;;
49764;SDS011;35657;51.204;-4.130;2023-05-29T08:38:11;9.15;;;3.47;;
49764;SDS011;35657;51.204;-4.130;2023-05-29T08:40:36;7.35;;;3.15;;
49764;SDS011;35657;51.204;-4.130;2023-05-29T08:43:06;10.40;;;3.85;;
49764;SDS011;35657;51.204;-4.130;2023-05-29T08:45:46;10.20;;;3.20;;
49764;SDS011;35657;51.204;-4.130;2023-05-29T08:48:17;11.45;;;3.92;;
49764;SDS011;35657;51.204;-4.130;2023-05-29T08:50:47;9.70;;;3.25;;
49764;SDS011;35657;51.204;-4.130;2023-05-29T08:53:14;13.55;;;4.50;;
49764;SDS011;35657;51.204;-4.130;2023-05-29T08:55:43;16.73;;;3.80;;
49764;SDS011;35657;51.204;-4.130;2023-05-29T08:58:12;7.20;;;3.28;;
49764;SDS011;35657;51.204;-4.130;2023-05-29T09:00:41;12.93;;;3.35;;
49764;SDS011;35657;51.204;-4.130;2023-05-29T09:03:07;9.60;;;2.80;;
49764;SDS011;35657;51.204;-4.130;2023-05-29T09:05:33;12.77;;;3.95;;
49764;SDS011;35657;51.204;-4.130;2023-05-29T09:07:59;8.80;;;3.28;;
49764;SDS011;35657;51.204;-4.130;2023-05-29T09:10:25;8.90;;;3.05;;
49764;SDS011;35657;51.204;-4.130;2023-05-29T09:12:51;10.38;;;3.25;;
49764;SDS011;35657;51.204;-4.130;2023-05-29T09:15:17;11.00;;;4.50;;
49764;SDS011;35657;51.204;-4.130;2023-05-29T09:17:55;9.35;;;3.13;;
49764;SDS011;35657;51.204;-4.130;2023-05-29T09:20:25;12.43;;;4.22;;
49764;SDS011;35657;51.204;-4.130;2023-05-29T09:25:26;7.15;;;2.45;;
49764;SDS011;35657;51.204;-4.130;2023-05-29T09:27:59;11.05;;;3.70;;
49764;SDS011;35657;51.204;-4.130;2023-05-29T09:30:40;8.45;;;3.92;;
49764;SDS011;35657;51.204;-4.130;2023-05-29T09:33:09;9.73;;;3.30;;
49764;SDS011;35657;51.204;-4.130;2023-05-29T09:38:06;9.10;;;3.60;;
49764;SDS011;35657;51.204;-4.130;2023-05-29T09:40:33;12.85;;;2.38;;
49764;SDS011;35657;51.204;-4.130;2023-05-29T09:45:43;9.43;;;2.47;;
49764;SDS011;35657;51.204;-4.130;2023-05-29T09:50:48;8.52;;;3.38;;
49764;SDS011;35657;51.204;-4.130;2023-05-29T09:55:45;8.60;;;3.40;;
49764;SDS011;35657;51.204;-4.130;2023-05-29T09:58:13;8.00;;;3.70;;
49764;SDS011;35657;51.204;-4.130;2023-05-29T10:00:48;11.52;;;3.92;;
49764;SDS011;35657;51.204;-4.130;2023-05-29T10:03:16;9.73;;;3.42;;
49764;SDS011;35657;51.204;-4.130;2023-05-29T10:05:43;6.97;;;2.53;;
49764;SDS011;35657;51.204;-4.130;2023-05-29T10:08:14;8.27;;;2.95;;
49764;SDS011;35657;51.204;-4.130;2023-05-29T10:10:46;9.20;;;3.40;;
49764;SDS011;35657;51.204;-4.130;2023-05-29T10:13:14;9.45;;;3.25;;
49764;SDS011;35657;51.204;-4.130;2023-05-29T10:15:43;6.38;;;2.55;;
49764;SDS011;35657;51.204;-4.130;2023-05-29T10:18:35;7.82;;;3.47;;
49764;SDS011;35657;51.204;-4.130;2023-05-29T10:21:02;10.48;;;3.45;;
49764;SDS011;35657;51.204;-4.130;2023-05-29T10:23:29;9.77;;;3.30;;
49764;SDS011;35657;51.204;-4.130;2023-05-29T10:25:59;8.88;;;3.75;;
49764;SDS011;35657;51.204;-4.130;2023-05-29T10:28:36;6.05;;;2.63;;
49764;SDS011;35657;51.204;-4.130;2023-05-29T10:31:09;7.75;;;2.75;;
49764;SDS011;35657;51.204;-4.130;2023-05-29T10:36:14;12.02;;;3.17;;
49764;SDS011;35657;51.204;-4.130;2023-05-29T10:38:46;6.55;;;2.42;;
49764;SDS011;35657;51.204;-4.130;2023-05-29T10:43:54;7.70;;;2.67;;
49764;SDS011;35657;51.204;-4.130;2023-05-29T10:49:17;8.15;;;3.35;;
49764;SDS011;35657;51.204;-4.130;2023-05-29T10:51:43;9.90;;;3.30;;
49764;SDS011;35657;51.204;-4.130;2023-05-29T10:54:09;7.53;;;2.70;;
49764;SDS011;35657;51.204;-4.130;2023-05-29T10:56:36;10.73;;;3.20;;
49764;SDS011;35657;51.204;-4.130;2023-05-29T10:59:02;7.03;;;2.53;;
49764;SDS011;35657;51.204;-4.130;2023-05-29T11:01:28;12.40;;;3.78;;
49764;SDS011;35657;51.204;-4.130;2023-05-29T11:06:42;5.82;;;2.58;;
49764;SDS011;35657;51.204;-4.130;2023-05-29T11:15:04;8.38;;;3.08;;
49764;SDS011;35657;51.204;-4.130;2023-05-29T11:20:06;8.20;;;2.92;;
49764;SDS011;35657;51.204;-4.130;2023-05-29T11:22:56;8.77;;;2.45;;
49764;SDS011;35657;51.204;-4.130;2023-05-29T11:25:27;15.02;;;3.38;;
49764;SDS011;35657;51.204;-4.130;2023-05-29T11:27:54;6.20;;;2.95;;
49764;SDS011;35657;51.204;-4.130;2023-05-29T11:30:20;9.63;;;3.30;;
49764;SDS011;35657;51.204;-4.130;2023-05-29T11:32:46;9.40;;;3.47;;
49764;SDS011;35657;51.204;-4.130;2023-05-29T11:35:13;7.50;;;2.90;;
49764;SDS011;35657;51.204;-4.130;2023-05-29T11:37:43;6.63;;;2.35;;
49764;SDS011;35657;51.204;-4.130;2023-05-29T11:40:13;6.97;;;3.20;;
49764;SDS011;35657;51.204;-4.130;2023-05-29T11:42:43;8.90;;;3.15;;
49764;SDS011;35657;51.204;-4.130;2023-05-29T11:45:19;7.32;;;2.92;;
49764;SDS011;35657;51.204;-4.130;2023-05-29T11:47:52;6.45;;;2.85;;
49764;SDS011;35657;51.204;-4.130;2023-05-29T11:52:49;11.75;;;3.33;;
49764;SDS011;35657;51.204;-4.130;2023-05-29T11:55:17;8.63;;;3.78;;
49764;SDS011;35657;51.204;-4.130;2023-05-29T11:57:44;7.25;;;3.22;;
49764;SDS011;35657;51.204;-4.130;2023-05-29T12:00:12;9.65;;;3.05;;
49764;SDS011;35657;51.204;-4.130;2023-05-29T12:02:42;8.93;;;3.25;;
49764;SDS011;35657;51.204;-4.130;2023-05-29T12:05:08;8.55;;;3.33;;
49764;SDS011;35657;51.204;-4.130;2023-05-29T12:07:38;10.68;;;3.53;;
49764;SDS011;35657;51.204;-4.130;2023-05-29T12:10:10;5.40;;;2.95;;
49764;SDS011;35657;51.204;-4.130;2023-05-29T12:12:37;7.30;;;3.85;;
49764;SDS011;35657;51.204;-4.130;2023-05-29T12:15:04;7.45;;;2.83;;
49764;SDS011;35657;51.204;-4.130;2023-05-29T12:17:31;5.30;;;2.80;;
49764;SDS011;35657;51.204;-4.130;2023-05-29T12:20:01;10.63;;;4.03;;
49764;SDS011;35657;51.204;-4.130;2023-05-29T12:22:35;6.22;;;2.92;;
49764;SDS011;35657;51.204;-4.130;2023-05-29T12:27:32;4.97;;;2.67;;
49764;SDS011;35657;51.204;-4.130;2023-05-29T12:30:02;8.57;;;2.88;;
49764;SDS011;35657;51.204;-4.130;2023-05-29T12:32:39;8.25;;;3.47;;
49764;SDS011;35657;51.204;-4.130;2023-05-29T12:37:45;6.03;;;2.67;;
49764;SDS011;35657;51.204;-4.130;2023-05-29T12:42:45;6.43;;;2.97;;
49764;SDS011;35657;51.204;-4.130;2023-05-29T12:45:12;10.35;;;3.15;;
49764;SDS011;35657;51.204;-4.130;2023-05-29T12:47:57;9.40;;;3.45;;
49764;SDS011;35657;51.204;-4.130;2023-05-29T12:50:28;6.18;;;3.00;;
49764;SDS011;35657;51.204;-4.130;2023-05-29T12:53:08;5.30;;;2.78;;
49764;SDS011;35657;51.204;-4.130;2023-05-29T12:55:40;8.80;;;2.80;;
49764;SDS011;35657;51.204;-4.130;2023-05-29T12:58:07;4.63;;;2.38;;
49764;SDS011;35657;51.204;-4.130;2023-05-29T13:00:35;6.20;;;2.70;;
49764;SDS011;35657;51.204;-4.130;2023-05-29T13:03:05;9.63;;;4.07;;
49764;SDS011;35657;51.204;-4.130;2023-05-29T13:05:31;7.15;;;3.17;;
49764;SDS011;35657;51.204;-4.130;2023-05-29T13:07:57;9.35;;;3.50;;
49764;SDS011;35657;51.204;-4.130;2023-05-29T13:10:24;6.25;;;2.85;;
49764;SDS011;35657;51.204;-4.130;2023-05-29T13:12:53;4.88;;;2.63;;
49764;SDS011;35657;51.204;-4.130;2023-05-29T13:15:23;6.90;;;2.40;;
49764;SDS011;35657;51.204;-4.130;2023-05-29T13:17:49;7.18;;;3.40;;
49764;SDS011;35657;51.204;-4.130;2023-05-29T13:20:16;5.78;;;2.50;;
49764;SDS011;35657;51.204;-4.130;2023-05-29T13:22:42;10.52;;;2.85;;
49764;SDS011;35657;51.204;-4.130;2023-05-29T13:25:11;11.95;;;2.78;;
49764;SDS011;35657;51.204;-4.130;2023-05-29T13:27:39;6.00;;;2.60;;
49764;SDS011;35657;51.204;-4.130;2023-05-29T13:30:06;6.20;;;2.75;;
49764;SDS011;35657;51.204;-4.130;2023-05-29T13:32:34;12.88;;;3.42;;
49764;SDS011;35657;51.204;-4.130;2023-05-29T13:34:59;6.97;;;2.85;;
49764;SDS011;35657;51.204;-4.130;2023-05-29T13:37:25;6.13;;;2.65;;
49764;SDS011;35657;51.204;-4.130;2023-05-29T13:39:52;4.50;;;3.00;;
49764;SDS011;35657;51.204;-4.130;2023-05-29T13:42:19;7.65;;;2.47;;
49764;SDS011;35657;51.204;-4.130;2023-05-29T13:44:45;6.35;;;2.47;;
49764;SDS011;35657;51.204;-4.130;2023-05-29T13:47:14;9.82;;;3.55;;
49764;SDS011;35657;51.204;-4.130;2023-05-29T13:49:40;7.95;;;2.47;;
49764;SDS011;35657;51.204;-4.130;2023-05-29T13:52:06;9.35;;;2.80;;
49764;SDS011;35657;51.204;-4.130;2023-05-29T13:54:32;6.93;;;2.90;;
49764;SDS011;35657;51.204;-4.130;2023-05-29T13:57:04;9.18;;;2.28;;
49764;SDS011;35657;51.204;-4.130;2023-05-29T13:59:31;5.63;;;2.45;;
49764;SDS011;35657;51.204;-4.130;2023-05-29T14:01:57;5.88;;;2.50;;
49764;SDS011;35657;51.204;-4.130;2023-05-29T14:04:23;9.02;;;3.20;;
49764;SDS011;35657;51.204;-4.130;2023-05-29T14:06:49;4.93;;;2.47;;
49764;SDS011;35657;51.204;-4.130;2023-05-29T14:09:16;8.63;;;2.67;;
49764;SDS011;35657;51.204;-4.130;2023-05-29T14:11:42;4.82;;;2.15;;
49764;SDS011;35657;51.204;-4.130;2023-05-29T14:14:07;7.90;;;2.67;;
49764;SDS011;35657;51.204;-4.130;2023-05-29T14:16:33;6.82;;;2.83;;
49764;SDS011;35657;51.204;-4.130;2023-05-29T14:18:59;7.47;;;2.50;;
49764;SDS011;35657;51.204;-4.130;2023-05-29T14:21:25;6.63;;;2.53;;
49764;SDS011;35657;51.204;-4.130;2023-05-29T14:23:51;6.82;;;2.60;;
49764;SDS011;35657;51.204;-4.130;2023-05-29T14:26:17;8.32;;;2.83;;
49764;SDS011;35657;51.204;-4.130;2023-05-29T14:28:43;6.55;;;2.00;;
49764;SDS011;35657;51.204;-4.130;2023-05-29T14:31:09;5.90;;;2.85;;
49764;SDS011;35657;51.204;-4.130;2023-05-29T14:33:35;6.22;;;2.55;;
49764;SDS011;35657;51.204;-4.130;2023-05-29T14:36:02;6.32;;;2.47;;
49764;SDS011;35657;51.204;-4.130;2023-05-29T14:38:28;7.82;;;2.40;;
49764;SDS011;35657;51.204;-4.130;2023-05-29T14:40:54;8.27;;;2.70;;
49764;SDS011;35657;51.204;-4.130;2023-05-29T14:43:19;6.22;;;2.95;;
49764;SDS011;35657;51.204;-4.130;2023-05-29T14:45:45;4.90;;;2.47;;
49764;SDS011;35657;51.204;-4.130;2023-05-29T14:48:11;7.65;;;3.13;;
49764;SDS011;35657;51.204;-4.130;2023-05-29T14:50:37;6.78;;;2.55;;
49764;SDS011;35657;51.204;-4.130;2023-05-29T14:53:03;5.95;;;2.60;;
49764;SDS011;35657;51.204;-4.130;2023-05-29T14:55:29;8.90;;;2.58;;
49764;SDS011;35657;51.204;-4.130;2023-05-29T14:58:02;6.43;;;2.60;;
49764;SDS011;35657;51.204;-4.130;2023-05-29T15:00:31;8.00;;;2.97;;
49764;SDS011;35657;51.204;-4.130;2023-05-29T15:02:57;6.93;;;3.13;;
49764;SDS011;35657;51.204;-4.130;2023-05-29T15:05:27;4.43;;;1.95;;
49764;SDS011;35657;51.204;-4.130;2023-05-29T15:07:54;6.13;;;2.50;;
49764;SDS011;35657;51.204;-4.130;2023-05-29T15:10:22;6.20;;;2.45;;
49764;SDS011;35657;51.204;-4.130;2023-05-29T15:12:52;7.40;;;3.28;;
49764;SDS011;35657;51.204;-4.130;2023-05-29T15:15:24;9.50;;;3.10;;
49764;SDS011;35657;51.204;-4.130;2023-05-29T15:17:53;10.18;;;3.05;;
49764;SDS011;35657;51.204;-4.130;2023-05-29T15:20:22;6.35;;;2.65;;